Time,TemperatureF,DewpointF,PressureIn,WindDirection,WindDirectionDegrees,WindSpeedMPH,WindSpeedGustMPH,Humidity,HourlyPrecipIn,Conditions,Clouds,dailyrainin,SoftwareType,DateUTC
2013-09-04 00:02:00,67.8,50.0,29.99,WSW,246,0.0,0.0,53,0.00,,,0.00,meteohub,2013-09-04 07:02:00,
2013-09-04 00:22:00,67.8,49.1,29.99,South,180,0.0,3.0,51,0.00,,,0.00,meteohub,2013-09-04 07:22:00,
2013-09-04 00:42:00,67.8,49.1,29.99,SSW,203,0.0,3.0,51,0.00,,,0.00,meteohub,2013-09-04 07:42:00,
2013-09-04 01:02:00,67.3,48.0,29.99,SSE,147,0.0,0.0,50,0.00,,,0.00,meteohub,2013-09-04 08:02:00,
2013-09-04 01:22:00,67.5,48.7,29.99,SSE,147,0.0,0.0,51,0.00,,,0.00,meteohub,2013-09-04 08:22:00,
2013-09-04 01:42:00,67.3,48.6,29.96,SSE,149,0.0,0.0,51,0.00,,,0.00,meteohub,2013-09-04 08:42:00,
2013-09-04 02:02:00,67.6,49.5,29.96,SW,216,0.0,3.0,52,0.00,,,0.00,meteohub,2013-09-04 09:02:00,
2013-09-04 02:22:00,67.1,48.9,29.96,SW,216,0.0,0.0,52,0.00,,,0.00,meteohub,2013-09-04 09:22:00,
2013-09-04 02:42:00,67.1,49.5,29.96,SW,216,0.0,0.0,53,0.00,,,0.00,meteohub,2013-09-04 09:42:00,
2013-09-04 03:02:00,66.9,49.8,29.96,SW,216,0.0,3.0,54,0.00,,,0.00,meteohub,2013-09-04 10:02:00,
2013-09-04 03:22:00,66.4,49.3,29.96,SW,216,0.0,0.0,54,0.00,,,0.00,meteohub,2013-09-04 10:22:00,
2013-09-04 03:42:00,66.2,49.1,29.96,SW,216,0.0,0.0,54,0.00,,,0.00,meteohub,2013-09-04 10:42:00,
2013-09-04 04:02:00,66.6,49.8,29.96,SE,145,0.0,4.0,55,0.00,,,0.00,meteohub,2013-09-04 11:02:00,
2013-09-04 04:22:00,66.2,49.6,29.96,SSE,154,4.0,4.0,55,0.00,,,0.00,meteohub,2013-09-04 11:22:00,
2013-09-04 04:42:00,66.7,50.5,29.96,South,169,3.0,4.0,56,0.00,,,0.00,meteohub,2013-09-04 11:42:00,
2013-09-04 05:02:00,66.7,51.1,29.96,South,170,4.0,5.0,57,0.00,,,0.00,meteohub,2013-09-04 12:02:00,
2013-09-04 05:22:00,66.7,51.1,29.96,South,171,0.0,5.0,57,0.00,,,0.00,meteohub,2013-09-04 12:22:00,
2013-09-04 05:42:00,66.9,51.6,29.96,South,176,0.0,6.0,58,0.00,,,0.00,meteohub,2013-09-04 12:42:00,
2013-09-04 06:02:00,66.7,51.4,29.96,SSW,200,0.0,4.0,58,0.00,,,0.00,meteohub,2013-09-04 13:02:00,
2013-09-04 06:22:00,66.6,51.3,29.96,SSW,200,0.0,0.0,58,0.00,,,0.00,meteohub,2013-09-04 13:22:00,
2013-09-04 06:42:00,66.6,51.3,29.96,SSW,200,0.0,3.0,58,0.00,,,0.00,meteohub,2013-09-04 13:42:00,
2013-09-04 07:02:00,66.7,52.0,29.99,SSW,200,0.0,0.0,59,0.00,,,0.00,meteohub,2013-09-04 14:02:00,
2013-09-04 07:22:00,67.1,52.7,29.99,SSW,200,0.0,0.0,60,0.00,,,0.00,meteohub,2013-09-04 14:22:00,
2013-09-04 07:42:00,68.0,54.0,29.99,SSW,200,0.0,0.0,61,0.00,,,0.00,meteohub,2013-09-04 14:42:00,
2013-09-04 08:02:00,69.4,55.4,29.99,East,99,0.0,2.0,61,0.00,,,0.00,meteohub,2013-09-04 15:02:00,
2013-09-04 08:22:00,71.4,56.3,29.99,East,99,0.0,0.0,59,0.00,,,0.00,meteohub,2013-09-04 15:22:00,
2013-09-04 08:42:00,73.6,52.7,29.99,South,187,0.0,4.0,48,0.00,,,0.00,meteohub,2013-09-04 15:42:00,
2013-09-04 09:02:00,74.8,45.3,29.99,SSW,210,3.0,5.0,35,0.00,,,0.00,meteohub,2013-09-04 16:02:00,
2013-09-04 09:22:00,74.8,44.6,29.99,SSW,202,6.0,6.0,34,0.00,,,0.00,meteohub,2013-09-04 16:22:00,
2013-09-04 09:42:00,74.7,45.1,29.99,WSW,258,6.0,6.0,35,0.00,,,0.00,meteohub,2013-09-04 16:42:00,
2013-09-04 10:02:00,75.4,44.2,29.99,WSW,239,2.0,6.0,33,0.00,,,0.00,meteohub,2013-09-04 17:02:00,
2013-09-04 10:22:00,76.3,45.1,29.99,WSW,244,4.0,8.0,33,0.00,,,0.00,meteohub,2013-09-04 17:22:00,
2013-09-04 10:42:00,75.2,45.0,29.99,WSW,257,8.0,9.0,34,0.00,,,0.00,meteohub,2013-09-04 17:42:00,
2013-09-04 11:02:00,76.6,45.3,29.99,WSW,252,6.0,8.0,33,0.00,,,0.00,meteohub,2013-09-04 18:02:00,
2013-09-04 11:22:00,76.5,45.1,29.99,SW,231,6.0,9.0,33,0.00,,,0.00,meteohub,2013-09-04 18:22:00,
2013-09-04 11:42:00,76.6,45.3,29.99,WSW,242,8.0,9.0,33,0.00,,,0.00,meteohub,2013-09-04 18:42:00,
2013-09-04 12:02:00,75.6,44.4,29.99,WSW,249,6.0,11.0,33,0.00,,,0.00,meteohub,2013-09-04 19:02:00,
2013-09-04 12:22:00,78.1,45.9,29.99,West,266,11.0,11.0,32,0.00,,,0.00,meteohub,2013-09-04 19:22:00,
2013-09-04 12:42:00,80.2,46.9,29.96,WSW,258,8.0,12.0,31,0.00,,,0.00,meteohub,2013-09-04 19:42:00,
2013-09-04 13:02:00,81.0,46.6,29.99,SW,229,5.0,11.0,30,0.00,,,0.00,meteohub,2013-09-04 20:02:00,
2013-09-04 13:22:00,79.3,45.1,29.99,WSW,256,9.0,11.0,30,0.00,,,0.00,meteohub,2013-09-04 20:22:00,
2013-09-04 13:42:00,80.1,45.9,29.99,WNW,301,11.0,13.0,30,0.00,,,0.00,meteohub,2013-09-04 20:42:00,
2013-09-04 14:02:00,80.1,45.9,29.99,West,266,10.0,12.0,30,0.00,,,0.00,meteohub,2013-09-04 21:02:00,
2013-09-04 14:22:00,79.2,45.1,29.99,West,264,6.0,15.0,30,0.00,,,0.00,meteohub,2013-09-04 21:22:00,
2013-09-04 14:42:00,80.2,46.0,29.96,WSW,240,9.0,11.0,30,0.00,,,0.00,meteohub,2013-09-04 21:42:00,
2013-09-04 15:02:00,79.2,45.1,29.96,West,259,8.0,12.0,30,0.00,,,0.00,meteohub,2013-09-04 22:02:00,
2013-09-04 15:22:00,79.2,45.1,29.96,SW,228,10.0,12.0,30,0.00,,,0.00,meteohub,2013-09-04 22:22:00,
2013-09-04 15:42:00,81.1,46.8,29.96,West,279,9.0,10.0,30,0.00,,,0.00,meteohub,2013-09-04 22:42:00,
2013-09-04 16:02:00,81.9,47.3,29.96,West,265,8.0,11.0,30,0.00,,,0.00,meteohub,2013-09-04 23:02:00,
2013-09-04 16:22:00,82.2,47.7,29.96,WSW,238,7.0,11.0,30,0.00,,,0.00,meteohub,2013-09-04 23:22:00,
2013-09-04 16:42:00,81.3,46.9,29.96,SSW,212,8.0,11.0,30,0.00,,,0.00,meteohub,2013-09-04 23:42:00,
2013-09-04 17:02:00,80.8,46.4,29.96,WSW,241,7.0,9.0,30,0.00,,,0.00,meteohub,2013-09-05 00:02:00,
2013-09-04 17:22:00,81.7,47.3,29.96,WSW,241,4.0,8.0,30,0.00,,,0.00,meteohub,2013-09-05 00:22:00,
2013-09-04 17:42:00,81.7,47.3,29.96,West,260,6.0,8.0,30,0.00,,,0.00,meteohub,2013-09-05 00:42:00,
2013-09-04 18:02:00,80.2,46.0,29.96,West,264,5.0,8.0,30,0.00,,,0.00,meteohub,2013-09-05 01:02:00,
2013-09-04 18:22:00,76.6,43.7,29.96,WSW,244,5.0,6.0,31,0.00,,,0.00,meteohub,2013-09-05 01:22:00,
2013-09-04 18:42:00,77.4,44.4,29.96,West,275,4.0,6.0,31,0.00,,,0.00,meteohub,2013-09-05 01:42:00,
2013-09-04 19:02:00,74.5,42.6,29.96,SW,231,4.0,6.0,32,0.00,,,0.00,meteohub,2013-09-05 02:02:00,
2013-09-04 19:22:00,73.0,42.3,29.96,WSW,252,4.0,6.0,33,0.00,,,0.00,meteohub,2013-09-05 02:22:00,
2013-09-04 19:42:00,72.0,41.4,29.96,SW,232,0.0,6.0,33,0.00,,,0.00,meteohub,2013-09-05 02:42:00,
2013-09-04 20:02:00,71.2,42.3,29.99,WSW,253,3.0,4.0,35,0.00,,,0.00,meteohub,2013-09-05 03:02:00,
2013-09-04 20:22:00,70.9,41.9,29.99,WSW,254,0.0,4.0,35,0.00,,,0.00,meteohub,2013-09-05 03:22:00,
2013-09-04 20:42:00,70.5,42.3,29.99,SW,224,0.0,5.0,36,0.00,,,0.00,meteohub,2013-09-05 03:42:00,
2013-09-04 21:02:00,70.3,42.8,29.99,SW,233,0.0,0.0,37,0.00,,,0.00,meteohub,2013-09-05 04:02:00,
2013-09-04 21:22:00,70.2,44.1,29.99,SW,232,0.0,0.0,39,0.00,,,0.00,meteohub,2013-09-05 04:22:00,
2013-09-04 21:42:00,69.6,45.0,29.99,SSW,201,3.0,5.0,41,0.00,,,0.00,meteohub,2013-09-05 04:42:00,
2013-09-04 22:02:00,69.3,45.9,29.99,SW,224,5.0,6.0,43,0.00,,,0.00,meteohub,2013-09-05 05:02:00,
2013-09-04 22:22:00,69.1,44.4,29.99,SW,236,4.0,6.0,41,0.00,,,0.00,meteohub,2013-09-05 05:22:00,
2013-09-04 22:42:00,69.3,43.9,29.99,WSW,249,0.0,4.0,40,0.00,,,0.00,meteohub,2013-09-05 05:42:00,
2013-09-04 23:02:00,69.1,44.4,29.99,WSW,237,3.0,6.0,41,0.00,,,0.00,meteohub,2013-09-05 06:02:00,
2013-09-04 23:22:00,68.7,44.8,29.99,SW,215,0.0,2.0,42,0.00,,,0.00,meteohub,2013-09-05 06:22:00,
2013-09-04 23:42:00,68.4,45.7,29.99,SSW,210,3.0,5.0,44,0.00,,,0.00,meteohub,2013-09-05 06:42:00,